sensor_id;sensor_type;location;lat;lon;timestamp;P1;durP1;ratioP1;P2;durP2;ratioP2
19199;SDS011;9732;52.498;5.408;2022-12-20T00:01:22;6.63;;;3.73;;
19199;SDS011;9732;52.498;5.408;2022-12-20T00:03:51;7.30;;;3.67;;
19199;SDS011;9732;52.498;5.408;2022-12-20T00:06:19;7.50;;;4.00;;
19199;SDS011;9732;52.498;5.408;2022-12-20T00:08:51;6.80;;;4.07;;
19199;SDS011;9732;52.498;5.408;2022-12-20T00:11:18;6.53;;;3.83;;
19199;SDS011;9732;52.498;5.408;2022-12-20T00:13:45;8.00;;;4.13;;
19199;SDS011;9732;52.498;5.408;2022-12-20T00:16:13;5.33;;;3.30;;
19199;SDS011;9732;52.498;5.408;2022-12-20T00:18:42;5.90;;;3.63;;
19199;SDS011;9732;52.498;5.408;2022-12-20T00:21:11;6.60;;;3.93;;
19199;SDS011;9732;52.498;5.408;2022-12-20T00:23:39;7.83;;;3.90;;
19199;SDS011;9732;52.498;5.408;2022-12-20T00:26:07;7.37;;;3.60;;
19199;SDS011;9732;52.498;5.408;2022-12-20T00:28:35;9.03;;;4.10;;
19199;SDS011;9732;52.498;5.408;2022-12-20T00:31:03;7.07;;;3.90;;
19199;SDS011;9732;52.498;5.408;2022-12-20T00:33:32;7.77;;;4.27;;
19199;SDS011;9732;52.498;5.408;2022-12-20T00:36:01;7.90;;;4.10;;
19199;SDS011;9732;52.498;5.408;2022-12-20T00:38:28;6.57;;;4.07;;
19199;SDS011;9732;52.498;5.408;2022-12-20T00:40:59;7.73;;;4.00;;
19199;SDS011;9732;52.498;5.408;2022-12-20T00:43:26;4.63;;;3.43;;
19199;SDS011;9732;52.498;5.408;2022-12-20T00:45:53;6.50;;;4.10;;
19199;SDS011;9732;52.498;5.408;2022-12-20T00:48:21;6.47;;;3.23;;
19199;SDS011;9732;52.498;5.408;2022-12-20T00:50:48;7.30;;;3.63;;
19199;SDS011;9732;52.498;5.408;2022-12-20T00:53:17;11.60;;;3.80;;
19199;SDS011;9732;52.498;5.408;2022-12-20T00:55:44;9.60;;;4.40;;
19199;SDS011;9732;52.498;5.408;2022-12-20T00:58:12;7.47;;;3.90;;
19199;SDS011;9732;52.498;5.408;2022-12-20T01:00:39;5.13;;;3.33;;
19199;SDS011;9732;52.498;5.408;2022-12-20T01:03:06;7.73;;;3.83;;
19199;SDS011;9732;52.498;5.408;2022-12-20T01:05:33;7.00;;;3.87;;
19199;SDS011;9732;52.498;5.408;2022-12-20T01:08:00;4.67;;;3.43;;
19199;SDS011;9732;52.498;5.408;2022-12-20T01:10:28;9.13;;;4.07;;
19199;SDS011;9732;52.498;5.408;2022-12-20T01:12:55;13.37;;;4.20;;
19199;SDS011;9732;52.498;5.408;2022-12-20T01:15:22;8.23;;;3.83;;
19199;SDS011;9732;52.498;5.408;2022-12-20T01:17:49;5.80;;;3.50;;
19199;SDS011;9732;52.498;5.408;2022-12-20T01:20:16;8.47;;;3.77;;
19199;SDS011;9732;52.498;5.408;2022-12-20T01:22:43;5.47;;;3.70;;
19199;SDS011;9732;52.498;5.408;2022-12-20T01:25:10;5.10;;;3.30;;
19199;SDS011;9732;52.498;5.408;2022-12-20T01:27:38;7.00;;;3.30;;
19199;SDS011;9732;52.498;5.408;2022-12-20T01:30:05;5.23;;;3.20;;
19199;SDS011;9732;52.498;5.408;2022-12-20T01:32:32;5.67;;;3.33;;
19199;SDS011;9732;52.498;5.408;2022-12-20T01:34:59;8.17;;;3.80;;
19199;SDS011;9732;52.498;5.408;2022-12-20T01:37:26;8.83;;;3.90;;
19199;SDS011;9732;52.498;5.408;2022-12-20T01:39:53;5.20;;;3.67;;
19199;SDS011;9732;52.498;5.408;2022-12-20T01:42:19;4.97;;;2.93;;
19199;SDS011;9732;52.498;5.408;2022-12-20T01:44:51;8.30;;;4.03;;
19199;SDS011;9732;52.498;5.408;2022-12-20T01:47:22;13.63;;;3.90;;
19199;SDS011;9732;52.498;5.408;2022-12-20T01:49:51;11.83;;;4.00;;
19199;SDS011;9732;52.498;5.408;2022-12-20T01:52:23;5.60;;;3.43;;
19199;SDS011;9732;52.498;5.408;2022-12-20T01:54:53;12.67;;;3.80;;
19199;SDS011;9732;52.498;5.408;2022-12-20T01:57:23;9.33;;;3.80;;
19199;SDS011;9732;52.498;5.408;2022-12-20T01:59:56;5.47;;;3.60;;
19199;SDS011;9732;52.498;5.408;2022-12-20T02:02:23;8.10;;;3.63;;
19199;SDS011;9732;52.498;5.408;2022-12-20T02:04:51;6.37;;;3.50;;
19199;SDS011;9732;52.498;5.408;2022-12-20T02:07:19;6.00;;;4.07;;
19199;SDS011;9732;52.498;5.408;2022-12-20T02:09:49;7.07;;;3.40;;
19199;SDS011;9732;52.498;5.408;2022-12-20T02:12:19;8.60;;;3.70;;
19199;SDS011;9732;52.498;5.408;2022-12-20T02:14:53;6.50;;;3.60;;
19199;SDS011;9732;52.498;5.408;2022-12-20T02:17:31;9.30;;;3.80;;
19199;SDS011;9732;52.498;5.408;2022-12-20T02:23:21;5.37;;;3.37;;
19199;SDS011;9732;52.498;5.408;2022-12-20T02:26:14;5.23;;;2.70;;
19199;SDS011;9732;52.498;5.408;2022-12-20T02:29:01;6.73;;;3.53;;
19199;SDS011;9732;52.498;5.408;2022-12-20T02:31:45;7.07;;;3.70;;
19199;SDS011;9732;52.498;5.408;2022-12-20T02:34:20;12.13;;;4.03;;
19199;SDS011;9732;52.498;5.408;2022-12-20T02:36:49;9.40;;;3.80;;
19199;SDS011;9732;52.498;5.408;2022-12-20T02:39:16;6.10;;;3.77;;
19199;SDS011;9732;52.498;5.408;2022-12-20T02:41:44;4.93;;;3.10;;
19199;SDS011;9732;52.498;5.408;2022-12-20T02:44:16;7.23;;;3.93;;
19199;SDS011;9732;52.498;5.408;2022-12-20T02:47:14;6.67;;;3.77;;
19199;SDS011;9732;52.498;5.408;2022-12-20T02:49:45;8.43;;;4.13;;
19199;SDS011;9732;52.498;5.408;2022-12-20T02:52:14;5.27;;;3.37;;
19199;SDS011;9732;52.498;5.408;2022-12-20T02:54:43;12.97;;;3.63;;
19199;SDS011;9732;52.498;5.408;2022-12-20T02:57:12;5.43;;;3.60;;
19199;SDS011;9732;52.498;5.408;2022-12-20T02:59:46;6.20;;;3.77;;
19199;SDS011;9732;52.498;5.408;2022-12-20T03:02:19;5.33;;;3.80;;
19199;SDS011;9732;52.498;5.408;2022-12-20T03:04:46;8.27;;;3.90;;
19199;SDS011;9732;52.498;5.408;2022-12-20T03:07:13;6.57;;;4.27;;
19199;SDS011;9732;52.498;5.408;2022-12-20T03:09:41;13.93;;;3.77;;
19199;SDS011;9732;52.498;5.408;2022-12-20T03:12:10;6.67;;;3.90;;
19199;SDS011;9732;52.498;5.408;2022-12-20T03:14:37;6.27;;;3.63;;
19199;SDS011;9732;52.498;5.408;2022-12-20T03:17:04;11.83;;;4.07;;
19199;SDS011;9732;52.498;5.408;2022-12-20T03:19:33;7.10;;;4.10;;
19199;SDS011;9732;52.498;5.408;2022-12-20T03:22:00;6.00;;;4.40;;
19199;SDS011;9732;52.498;5.408;2022-12-20T03:24:27;12.40;;;4.23;;
19199;SDS011;9732;52.498;5.408;2022-12-20T03:26:53;9.60;;;4.30;;
19199;SDS011;9732;52.498;5.408;2022-12-20T03:29:20;6.43;;;4.43;;
19199;SDS011;9732;52.498;5.408;2022-12-20T03:31:47;8.53;;;4.17;;
19199;SDS011;9732;52.498;5.408;2022-12-20T03:34:14;7.97;;;3.93;;
19199;SDS011;9732;52.498;5.408;2022-12-20T03:36:42;7.17;;;4.17;;
19199;SDS011;9732;52.498;5.408;2022-12-20T03:39:09;9.53;;;4.37;;
19199;SDS011;9732;52.498;5.408;2022-12-20T03:41:36;13.17;;;4.47;;
19199;SDS011;9732;52.498;5.408;2022-12-20T03:44:03;7.50;;;3.97;;
19199;SDS011;9732;52.498;5.408;2022-12-20T03:46:29;7.60;;;3.93;;
19199;SDS011;9732;52.498;5.408;2022-12-20T03:48:56;7.87;;;3.73;;
19199;SDS011;9732;52.498;5.408;2022-12-20T03:51:23;6.80;;;3.57;;
19199;SDS011;9732;52.498;5.408;2022-12-20T03:53:51;7.17;;;4.03;;
19199;SDS011;9732;52.498;5.408;2022-12-20T03:56:18;6.00;;;3.83;;
19199;SDS011;9732;52.498;5.408;2022-12-20T03:58:45;8.73;;;4.53;;
19199;SDS011;9732;52.498;5.408;2022-12-20T04:01:15;5.90;;;3.93;;
19199;SDS011;9732;52.498;5.408;2022-12-20T04:03:43;8.73;;;4.27;;
19199;SDS011;9732;52.498;5.408;2022-12-20T04:06:10;8.53;;;4.00;;
19199;SDS011;9732;52.498;5.408;2022-12-20T04:08:37;7.13;;;3.93;;
19199;SDS011;9732;52.498;5.408;2022-12-20T04:11:05;6.70;;;3.97;;
19199;SDS011;9732;52.498;5.408;2022-12-20T04:13:41;9.67;;;4.27;;
19199;SDS011;9732;52.498;5.408;2022-12-20T04:16:08;7.07;;;3.40;;
19199;SDS011;9732;52.498;5.408;2022-12-20T04:18:34;7.10;;;3.40;;
19199;SDS011;9732;52.498;5.408;2022-12-20T04:21:02;9.40;;;3.57;;
19199;SDS011;9732;52.498;5.408;2022-12-20T04:23:31;6.50;;;3.33;;
19199;SDS011;9732;52.498;5.408;2022-12-20T04:25:58;8.47;;;4.03;;
19199;SDS011;9732;52.498;5.408;2022-12-20T04:28:26;8.40;;;4.13;;
19199;SDS011;9732;52.498;5.408;2022-12-20T04:30:53;7.43;;;3.67;;
19199;SDS011;9732;52.498;5.408;2022-12-20T04:33:20;8.70;;;4.30;;
19199;SDS011;9732;52.498;5.408;2022-12-20T04:35:47;6.23;;;4.00;;
19199;SDS011;9732;52.498;5.408;2022-12-20T04:38:14;6.13;;;3.57;;
19199;SDS011;9732;52.498;5.408;2022-12-20T04:40:41;6.37;;;3.70;;
19199;SDS011;9732;52.498;5.408;2022-12-20T04:43:07;7.90;;;3.73;;
19199;SDS011;9732;52.498;5.408;2022-12-20T04:45:36;6.80;;;3.87;;
19199;SDS011;9732;52.498;5.408;2022-12-20T04:48:03;6.53;;;3.73;;
19199;SDS011;9732;52.498;5.408;2022-12-20T04:50:30;5.17;;;3.40;;
19199;SDS011;9732;52.498;5.408;2022-12-20T04:52:57;8.00;;;3.63;;
19199;SDS011;9732;52.498;5.408;2022-12-20T04:55:41;5.70;;;3.60;;
19199;SDS011;9732;52.498;5.408;2022-12-20T04:58:08;6.73;;;3.57;;
19199;SDS011;9732;52.498;5.408;2022-12-20T05:00:36;10.90;;;3.90;;
19199;SDS011;9732;52.498;5.408;2022-12-20T05:03:03;6.57;;;3.67;;
19199;SDS011;9732;52.498;5.408;2022-12-20T05:05:29;7.07;;;3.50;;
19199;SDS011;9732;52.498;5.408;2022-12-20T05:07:56;7.73;;;3.70;;
19199;SDS011;9732;52.498;5.408;2022-12-20T05:10:23;8.07;;;3.13;;
19199;SDS011;9732;52.498;5.408;2022-12-20T05:12:50;6.23;;;3.23;;
19199;SDS011;9732;52.498;5.408;2022-12-20T05:15:17;8.00;;;3.90;;
19199;SDS011;9732;52.498;5.408;2022-12-20T05:17:45;5.30;;;3.03;;
19199;SDS011;9732;52.498;5.408;2022-12-20T05:20:12;6.03;;;3.53;;
19199;SDS011;9732;52.498;5.408;2022-12-20T05:22:39;7.27;;;3.40;;
19199;SDS011;9732;52.498;5.408;2022-12-20T05:25:23;8.87;;;3.57;;
19199;SDS011;9732;52.498;5.408;2022-12-20T05:28:07;7.70;;;4.10;;
19199;SDS011;9732;52.498;5.408;2022-12-20T05:30:34;9.40;;;4.07;;
19199;SDS011;9732;52.498;5.408;2022-12-20T05:33:02;6.17;;;3.70;;
19199;SDS011;9732;52.498;5.408;2022-12-20T05:35:29;9.57;;;3.57;;
19199;SDS011;9732;52.498;5.408;2022-12-20T05:37:56;7.63;;;4.60;;
19199;SDS011;9732;52.498;5.408;2022-12-20T05:40:23;6.80;;;3.27;;
19199;SDS011;9732;52.498;5.408;2022-12-20T05:42:49;7.63;;;3.43;;
19199;SDS011;9732;52.498;5.408;2022-12-20T05:45:16;9.17;;;4.17;;
19199;SDS011;9732;52.498;5.408;2022-12-20T05:47:43;9.83;;;4.07;;
19199;SDS011;9732;52.498;5.408;2022-12-20T05:50:24;8.53;;;4.27;;
19199;SDS011;9732;52.498;5.408;2022-12-20T05:53:15;9.27;;;4.00;;
19199;SDS011;9732;52.498;5.408;2022-12-20T05:55:42;7.93;;;4.00;;
19199;SDS011;9732;52.498;5.408;2022-12-20T05:58:10;10.00;;;4.77;;
19199;SDS011;9732;52.498;5.408;2022-12-20T06:00:38;8.33;;;4.53;;
19199;SDS011;9732;52.498;5.408;2022-12-20T06:03:05;8.80;;;4.87;;
19199;SDS011;9732;52.498;5.408;2022-12-20T06:05:34;6.27;;;4.23;;
19199;SDS011;9732;52.498;5.408;2022-12-20T06:08:01;8.33;;;4.80;;
19199;SDS011;9732;52.498;5.408;2022-12-20T06:10:29;9.00;;;4.70;;
19199;SDS011;9732;52.498;5.408;2022-12-20T06:12:56;8.63;;;4.60;;
19199;SDS011;9732;52.498;5.408;2022-12-20T06:15:23;6.93;;;4.10;;
19199;SDS011;9732;52.498;5.408;2022-12-20T06:17:50;13.37;;;4.17;;
19199;SDS011;9732;52.498;5.408;2022-12-20T06:20:17;6.67;;;4.10;;
19199;SDS011;9732;52.498;5.408;2022-12-20T06:22:45;10.93;;;4.40;;
19199;SDS011;9732;52.498;5.408;2022-12-20T06:25:13;7.13;;;4.60;;
19199;SDS011;9732;52.498;5.408;2022-12-20T06:27:40;7.13;;;3.67;;
19199;SDS011;9732;52.498;5.408;2022-12-20T06:30:07;6.97;;;4.27;;
19199;SDS011;9732;52.498;5.408;2022-12-20T06:32:35;6.03;;;4.20;;
19199;SDS011;9732;52.498;5.408;2022-12-20T06:35:02;5.83;;;4.00;;
19199;SDS011;9732;52.498;5.408;2022-12-20T06:37:30;9.43;;;4.67;;
19199;SDS011;9732;52.498;5.408;2022-12-20T06:39:58;6.53;;;3.87;;
19199;SDS011;9732;52.498;5.408;2022-12-20T06:42:25;12.67;;;4.27;;
19199;SDS011;9732;52.498;5.408;2022-12-20T06:44:52;8.00;;;4.90;;
19199;SDS011;9732;52.498;5.408;2022-12-20T06:47:19;6.40;;;4.90;;
19199;SDS011;9732;52.498;5.408;2022-12-20T06:49:46;8.40;;;4.10;;
19199;SDS011;9732;52.498;5.408;2022-12-20T06:52:13;11.17;;;4.20;;
19199;SDS011;9732;52.498;5.408;2022-12-20T06:54:40;8.33;;;4.63;;
19199;SDS011;9732;52.498;5.408;2022-12-20T06:57:08;6.13;;;4.30;;
19199;SDS011;9732;52.498;5.408;2022-12-20T06:59:35;7.57;;;4.03;;
19199;SDS011;9732;52.498;5.408;2022-12-20T07:02:02;6.67;;;4.00;;
19199;SDS011;9732;52.498;5.408;2022-12-20T07:04:29;8.60;;;4.10;;
19199;SDS011;9732;52.498;5.408;2022-12-20T07:06:56;9.03;;;4.50;;
19199;SDS011;9732;52.498;5.408;2022-12-20T07:09:23;7.20;;;4.07;;
19199;SDS011;9732;52.498;5.408;2022-12-20T07:11:50;6.67;;;4.17;;
19199;SDS011;9732;52.498;5.408;2022-12-20T07:14:18;6.57;;;3.80;;
19199;SDS011;9732;52.498;5.408;2022-12-20T07:16:45;8.43;;;3.80;;
19199;SDS011;9732;52.498;5.408;2022-12-20T07:19:12;5.13;;;3.60;;
19199;SDS011;9732;52.498;5.408;2022-12-20T07:21:40;12.40;;;3.87;;
19199;SDS011;9732;52.498;5.408;2022-12-20T07:24:07;7.77;;;4.47;;
19199;SDS011;9732;52.498;5.408;2022-12-20T07:26:34;7.87;;;3.80;;
19199;SDS011;9732;52.498;5.408;2022-12-20T07:29:01;5.60;;;3.40;;
19199;SDS011;9732;52.498;5.408;2022-12-20T07:31:29;7.83;;;3.80;;
19199;SDS011;9732;52.498;5.408;2022-12-20T07:33:56;6.63;;;3.83;;
19199;SDS011;9732;52.498;5.408;2022-12-20T07:36:23;8.83;;;3.53;;
19199;SDS011;9732;52.498;5.408;2022-12-20T07:38:50;7.43;;;3.60;;
19199;SDS011;9732;52.498;5.408;2022-12-20T07:41:17;5.47;;;3.40;;
19199;SDS011;9732;52.498;5.408;2022-12-20T07:43:44;9.37;;;3.80;;
19199;SDS011;9732;52.498;5.408;2022-12-20T07:46:12;8.37;;;3.70;;
19199;SDS011;9732;52.498;5.408;2022-12-20T07:48:41;6.77;;;2.97;;
19199;SDS011;9732;52.498;5.408;2022-12-20T07:51:09;5.83;;;3.20;;
19199;SDS011;9732;52.498;5.408;2022-12-20T07:53:40;4.47;;;2.93;;
19199;SDS011;9732;52.498;5.408;2022-12-20T07:56:10;11.23;;;3.47;;
19199;SDS011;9732;52.498;5.408;2022-12-20T07:58:38;7.47;;;3.10;;
19199;SDS011;9732;52.498;5.408;2022-12-20T08:01:08;6.03;;;3.53;;
19199;SDS011;9732;52.498;5.408;2022-12-20T08:03:38;4.77;;;3.00;;
19199;SDS011;9732;52.498;5.408;2022-12-20T08:06:11;4.53;;;3.10;;
19199;SDS011;9732;52.498;5.408;2022-12-20T08:08:40;5.90;;;3.57;;
19199;SDS011;9732;52.498;5.408;2022-12-20T08:11:13;6.90;;;3.20;;
19199;SDS011;9732;52.498;5.408;2022-12-20T08:13:41;5.73;;;2.77;;
19199;SDS011;9732;52.498;5.408;2022-12-20T08:16:08;9.10;;;2.90;;
19199;SDS011;9732;52.498;5.408;2022-12-20T08:18:35;4.50;;;2.80;;
19199;SDS011;9732;52.498;5.408;2022-12-20T08:21:04;6.70;;;3.10;;
19199;SDS011;9732;52.498;5.408;2022-12-20T08:23:31;9.50;;;3.03;;
19199;SDS011;9732;52.498;5.408;2022-12-20T08:25:59;5.17;;;2.97;;
19199;SDS011;9732;52.498;5.408;2022-12-20T08:28:27;5.60;;;2.97;;
19199;SDS011;9732;52.498;5.408;2022-12-20T08:30:59;4.63;;;2.50;;
19199;SDS011;9732;52.498;5.408;2022-12-20T08:33:27;4.23;;;2.60;;
19199;SDS011;9732;52.498;5.408;2022-12-20T08:35:56;4.57;;;2.57;;
19199;SDS011;9732;52.498;5.408;2022-12-20T08:38:25;5.00;;;3.03;;
19199;SDS011;9732;52.498;5.408;2022-12-20T08:40:53;9.07;;;2.97;;
19199;SDS011;9732;52.498;5.408;2022-12-20T08:43:20;5.60;;;3.20;;
19199;SDS011;9732;52.498;5.408;2022-12-20T08:45:50;7.93;;;3.00;;
19199;SDS011;9732;52.498;5.408;2022-12-20T08:48:18;5.50;;;3.20;;
19199;SDS011;9732;52.498;5.408;2022-12-20T08:50:45;3.73;;;2.80;;
19199;SDS011;9732;52.498;5.408;2022-12-20T08:53:12;7.83;;;2.87;;
19199;SDS011;9732;52.498;5.408;2022-12-20T08:55:40;4.50;;;3.00;;
19199;SDS011;9732;52.498;5.408;2022-12-20T08:58:07;6.67;;;2.80;;
19199;SDS011;9732;52.498;5.408;2022-12-20T09:00:34;6.87;;;3.17;;
19199;SDS011;9732;52.498;5.408;2022-12-20T09:03:01;9.00;;;2.80;;
19199;SDS011;9732;52.498;5.408;2022-12-20T09:05:28;3.90;;;2.73;;
19199;SDS011;9732;52.498;5.408;2022-12-20T09:07:55;9.73;;;3.30;;
19199;SDS011;9732;52.498;5.408;2022-12-20T09:10:22;4.67;;;3.20;;
19199;SDS011;9732;52.498;5.408;2022-12-20T09:12:50;3.60;;;2.67;;
19199;SDS011;9732;52.498;5.408;2022-12-20T09:15:17;5.93;;;2.80;;
19199;SDS011;9732;52.498;5.408;2022-12-20T09:17:44;4.87;;;3.20;;
19199;SDS011;9732;52.498;5.408;2022-12-20T09:20:11;4.13;;;2.70;;
19199;SDS011;9732;52.498;5.408;2022-12-20T09:22:39;4.33;;;3.17;;
19199;SDS011;9732;52.498;5.408;2022-12-20T09:25:06;6.17;;;3.23;;
19199;SDS011;9732;52.498;5.408;2022-12-20T09:27:34;6.00;;;2.97;;
19199;SDS011;9732;52.498;5.408;2022-12-20T09:30:03;5.13;;;2.97;;
19199;SDS011;9732;52.498;5.408;2022-12-20T09:32:31;4.83;;;3.13;;
19199;SDS011;9732;52.498;5.408;2022-12-20T09:34:58;5.90;;;3.03;;
19199;SDS011;9732;52.498;5.408;2022-12-20T09:37:25;6.10;;;2.80;;
19199;SDS011;9732;52.498;5.408;2022-12-20T09:39:54;5.53;;;3.27;;
19199;SDS011;9732;52.498;5.408;2022-12-20T09:42:23;5.20;;;3.00;;
19199;SDS011;9732;52.498;5.408;2022-12-20T09:45:00;7.07;;;2.97;;
19199;SDS011;9732;52.498;5.408;2022-12-20T09:47:32;6.03;;;2.67;;
19199;SDS011;9732;52.498;5.408;2022-12-20T09:50:01;5.03;;;3.17;;
19199;SDS011;9732;52.498;5.408;2022-12-20T09:52:42;4.83;;;2.97;;
19199;SDS011;9732;52.498;5.408;2022-12-20T09:55:26;6.10;;;3.07;;
19199;SDS011;9732;52.498;5.408;2022-12-20T09:58:05;7.90;;;3.00;;
19199;SDS011;9732;52.498;5.408;2022-12-20T10:00:49;9.43;;;3.10;;
19199;SDS011;9732;52.498;5.408;2022-12-20T10:03:19;6.03;;;3.27;;
19199;SDS011;9732;52.498;5.408;2022-12-20T10:05:49;10.43;;;4.13;;
19199;SDS011;9732;52.498;5.408;2022-12-20T10:11:10;7.07;;;3.20;;
19199;SDS011;9732;52.498;5.408;2022-12-20T10:13:52;5.93;;;3.10;;
19199;SDS011;9732;52.498;5.408;2022-12-20T10:16:35;7.10;;;3.40;;
19199;SDS011;9732;52.498;5.408;2022-12-20T10:19:12;6.70;;;3.07;;
19199;SDS011;9732;52.498;5.408;2022-12-20T10:21:50;8.23;;;3.63;;
19199;SDS011;9732;52.498;5.408;2022-12-20T10:24:24;9.17;;;3.63;;
19199;SDS011;9732;52.498;5.408;2022-12-20T10:26:53;5.53;;;3.47;;
19199;SDS011;9732;52.498;5.408;2022-12-20T10:29:20;4.80;;;3.43;;
19199;SDS011;9732;52.498;5.408;2022-12-20T10:31:48;6.93;;;4.17;;
19199;SDS011;9732;52.498;5.408;2022-12-20T10:34:18;8.07;;;4.07;;
19199;SDS011;9732;52.498;5.408;2022-12-20T10:36:46;7.00;;;4.70;;
19199;SDS011;9732;52.498;5.408;2022-12-20T10:39:39;4.87;;;3.93;;
19199;SDS011;9732;52.498;5.408;2022-12-20T10:42:18;7.13;;;4.03;;
19199;SDS011;9732;52.498;5.408;2022-12-20T10:44:52;9.00;;;4.93;;
19199;SDS011;9732;52.498;5.408;2022-12-20T10:47:23;8.83;;;4.33;;
19199;SDS011;9732;52.498;5.408;2022-12-20T10:50:08;10.90;;;4.67;;
19199;SDS011;9732;52.498;5.408;2022-12-20T10:52:39;10.80;;;4.63;;
19199;SDS011;9732;52.498;5.408;2022-12-20T10:58:00;8.03;;;4.90;;
19199;SDS011;9732;52.498;5.408;2022-12-20T11:00:31;7.50;;;4.73;;
19199;SDS011;9732;52.498;5.408;2022-12-20T11:03:06;7.77;;;4.90;;
19199;SDS011;9732;52.498;5.408;2022-12-20T11:05:52;7.83;;;5.27;;
19199;SDS011;9732;52.498;5.408;2022-12-20T11:08:22;9.07;;;5.53;;
19199;SDS011;9732;52.498;5.408;2022-12-20T11:10:50;8.93;;;5.63;;
19199;SDS011;9732;52.498;5.408;2022-12-20T11:13:37;9.43;;;5.53;;
19199;SDS011;9732;52.498;5.408;2022-12-20T11:16:05;16.07;;;5.00;;
19199;SDS011;9732;52.498;5.408;2022-12-20T11:18:49;11.87;;;5.90;;
19199;SDS011;9732;52.498;5.408;2022-12-20T11:21:25;8.47;;;5.03;;
19199;SDS011;9732;52.498;5.408;2022-12-20T11:23:57;9.23;;;5.73;;
19199;SDS011;9732;52.498;5.408;2022-12-20T11:26:40;10.43;;;5.23;;
19199;SDS011;9732;52.498;5.408;2022-12-20T11:29:19;10.37;;;6.07;;
19199;SDS011;9732;52.498;5.408;2022-12-20T11:32:11;11.43;;;6.47;;
19199;SDS011;9732;52.498;5.408;2022-12-20T11:34:45;12.23;;;5.97;;
19199;SDS011;9732;52.498;5.408;2022-12-20T11:37:20;8.77;;;5.80;;
19199;SDS011;9732;52.498;5.408;2022-12-20T11:39:58;9.03;;;6.07;;
19199;SDS011;9732;52.498;5.408;2022-12-20T11:42:35;12.73;;;6.33;;
19199;SDS011;9732;52.498;5.408;2022-12-20T11:45:14;9.27;;;6.00;;
19199;SDS011;9732;52.498;5.408;2022-12-20T11:47:54;9.07;;;6.00;;
19199;SDS011;9732;52.498;5.408;2022-12-20T11:50:51;13.30;;;6.17;;
19199;SDS011;9732;52.498;5.408;2022-12-20T11:53:37;13.13;;;6.40;;
19199;SDS011;9732;52.498;5.408;2022-12-20T11:56:06;11.10;;;7.00;;
19199;SDS011;9732;52.498;5.408;2022-12-20T11:58:42;10.23;;;7.33;;
19199;SDS011;9732;52.498;5.408;2022-12-20T12:01:15;11.73;;;5.93;;
19199;SDS011;9732;52.498;5.408;2022-12-20T12:03:56;11.83;;;6.37;;
19199;SDS011;9732;52.498;5.408;2022-12-20T12:06:29;11.43;;;7.03;;
19199;SDS011;9732;52.498;5.408;2022-12-20T12:09:03;11.47;;;6.53;;
19199;SDS011;9732;52.498;5.408;2022-12-20T12:11:35;10.53;;;7.10;;
19199;SDS011;9732;52.498;5.408;2022-12-20T12:14:05;15.53;;;7.13;;
19199;SDS011;9732;52.498;5.408;2022-12-20T12:16:41;7.83;;;6.67;;
19199;SDS011;9732;52.498;5.408;2022-12-20T12:19:12;14.77;;;7.90;;
19199;SDS011;9732;52.498;5.408;2022-12-20T12:21:40;9.23;;;6.87;;
19199;SDS011;9732;52.498;5.408;2022-12-20T12:24:15;16.40;;;7.77;;
19199;SDS011;9732;52.498;5.408;2022-12-20T12:26:46;12.33;;;7.80;;
19199;SDS011;9732;52.498;5.408;2022-12-20T12:29:14;12.67;;;7.30;;
19199;SDS011;9732;52.498;5.408;2022-12-20T12:31:45;13.93;;;7.53;;
19199;SDS011;9732;52.498;5.408;2022-12-20T12:34:18;14.10;;;8.03;;
19199;SDS011;9732;52.498;5.408;2022-12-20T12:37:01;13.53;;;9.07;;
19199;SDS011;9732;52.498;5.408;2022-12-20T12:39:56;14.63;;;8.67;;
19199;SDS011;9732;52.498;5.408;2022-12-20T12:42:57;11.30;;;8.40;;
19199;SDS011;9732;52.498;5.408;2022-12-20T12:45:36;14.63;;;9.33;;
19199;SDS011;9732;52.498;5.408;2022-12-20T12:48:11;14.67;;;9.30;;
19199;SDS011;9732;52.498;5.408;2022-12-20T12:50:48;13.77;;;9.00;;
19199;SDS011;9732;52.498;5.408;2022-12-20T12:53:19;15.83;;;9.63;;
19199;SDS011;9732;52.498;5.408;2022-12-20T12:55:53;13.73;;;9.27;;
19199;SDS011;9732;52.498;5.408;2022-12-20T12:58:31;14.20;;;9.37;;
19199;SDS011;9732;52.498;5.408;2022-12-20T13:01:00;18.07;;;10.67;;
19199;SDS011;9732;52.498;5.408;2022-12-20T13:03:36;15.90;;;10.23;;
19199;SDS011;9732;52.498;5.408;2022-12-20T13:09:36;15.93;;;10.40;;
19199;SDS011;9732;52.498;5.408;2022-12-20T13:18:26;20.23;;;10.77;;
19199;SDS011;9732;52.498;5.408;2022-12-20T13:27:02;18.97;;;11.53;;
19199;SDS011;9732;52.498;5.408;2022-12-20T13:30:01;21.73;;;11.17;;
19199;SDS011;9732;52.498;5.408;2022-12-20T13:36:04;20.07;;;11.03;;
19199;SDS011;9732;52.498;5.408;2022-12-20T13:39:03;21.27;;;12.03;;
19199;SDS011;9732;52.498;5.408;2022-12-20T13:42:06;19.17;;;11.57;;
19199;SDS011;9732;52.498;5.408;2022-12-20T13:44:43;19.93;;;10.97;;
19199;SDS011;9732;52.498;5.408;2022-12-20T13:50:20;19.73;;;11.60;;
19199;SDS011;9732;52.498;5.408;2022-12-20T13:52:51;18.40;;;11.83;;
19199;SDS011;9732;52.498;5.408;2022-12-20T13:55:22;19.60;;;11.50;;
19199;SDS011;9732;52.498;5.408;2022-12-20T13:57:56;21.43;;;11.20;;
19199;SDS011;9732;52.498;5.408;2022-12-20T14:00:29;21.40;;;11.50;;
19199;SDS011;9732;52.498;5.408;2022-12-20T14:02:58;17.83;;;9.73;;
19199;SDS011;9732;52.498;5.408;2022-12-20T14:08:29;18.27;;;11.77;;
19199;SDS011;9732;52.498;5.408;2022-12-20T14:11:06;17.67;;;10.27;;
19199;SDS011;9732;52.498;5.408;2022-12-20T14:13:34;21.73;;;11.93;;
19199;SDS011;9732;52.498;5.408;2022-12-20T14:16:06;21.77;;;13.80;;
19199;SDS011;9732;52.498;5.408;2022-12-20T14:18:36;18.07;;;10.80;;
19199;SDS011;9732;52.498;5.408;2022-12-20T14:21:05;20.37;;;11.70;;
19199;SDS011;9732;52.498;5.408;2022-12-20T14:23:36;19.23;;;10.87;;
19199;SDS011;9732;52.498;5.408;2022-12-20T14:26:05;15.67;;;10.03;;
19199;SDS011;9732;52.498;5.408;2022-12-20T14:28:37;16.80;;;10.20;;
19199;SDS011;9732;52.498;5.408;2022-12-20T14:31:21;19.13;;;11.27;;
19199;SDS011;9732;52.498;5.408;2022-12-20T14:33:49;16.30;;;11.13;;
19199;SDS011;9732;52.498;5.408;2022-12-20T14:36:17;20.10;;;10.80;;
19199;SDS011;9732;52.498;5.408;2022-12-20T14:38:47;17.30;;;10.20;;
19199;SDS011;9732;52.498;5.408;2022-12-20T14:41:32;22.40;;;11.33;;
19199;SDS011;9732;52.498;5.408;2022-12-20T14:44:02;17.40;;;10.70;;
19199;SDS011;9732;52.498;5.408;2022-12-20T14:46:39;17.90;;;10.97;;
19199;SDS011;9732;52.498;5.408;2022-12-20T14:49:16;17.03;;;10.60;;
19199;SDS011;9732;52.498;5.408;2022-12-20T14:51:47;18.00;;;11.37;;
19199;SDS011;9732;52.498;5.408;2022-12-20T14:54:17;18.30;;;10.90;;
19199;SDS011;9732;52.498;5.408;2022-12-20T14:56:46;18.90;;;10.90;;
19199;SDS011;9732;52.498;5.408;2022-12-20T14:59:16;17.93;;;10.10;;
19199;SDS011;9732;52.498;5.408;2022-12-20T15:01:49;23.03;;;11.70;;
19199;SDS011;9732;52.498;5.408;2022-12-20T15:04:21;24.37;;;11.90;;
19199;SDS011;9732;52.498;5.408;2022-12-20T15:06:50;20.40;;;11.67;;
19199;SDS011;9732;52.498;5.408;2022-12-20T15:09:19;20.53;;;10.57;;
19199;SDS011;9732;52.498;5.408;2022-12-20T15:11:46;23.87;;;12.00;;
19199;SDS011;9732;52.498;5.408;2022-12-20T15:14:20;22.50;;;13.00;;
19199;SDS011;9732;52.498;5.408;2022-12-20T15:16:54;27.10;;;12.97;;
19199;SDS011;9732;52.498;5.408;2022-12-20T15:19:22;25.20;;;13.33;;
19199;SDS011;9732;52.498;5.408;2022-12-20T15:21:49;24.20;;;13.87;;
19199;SDS011;9732;52.498;5.408;2022-12-20T15:24:18;28.30;;;13.50;;
19199;SDS011;9732;52.498;5.408;2022-12-20T15:26:49;24.57;;;14.10;;
19199;SDS011;9732;52.498;5.408;2022-12-20T15:29:17;27.13;;;14.93;;
19199;SDS011;9732;52.498;5.408;2022-12-20T15:31:45;28.10;;;14.97;;
19199;SDS011;9732;52.498;5.408;2022-12-20T15:34:13;27.03;;;14.90;;
19199;SDS011;9732;52.498;5.408;2022-12-20T15:36:44;28.10;;;16.03;;
19199;SDS011;9732;52.498;5.408;2022-12-20T15:39:11;26.53;;;14.87;;
19199;SDS011;9732;52.498;5.408;2022-12-20T15:41:41;28.80;;;15.30;;
19199;SDS011;9732;52.498;5.408;2022-12-20T15:44:13;28.67;;;15.10;;
19199;SDS011;9732;52.498;5.408;2022-12-20T15:46:41;27.03;;;15.77;;
19199;SDS011;9732;52.498;5.408;2022-12-20T15:49:11;34.00;;;15.90;;
19199;SDS011;9732;52.498;5.408;2022-12-20T15:51:43;30.80;;;16.07;;